This is the latest recevied weather packets stored in our database for station/object ED1ZAI-13. If no packets are shown the sender has not sent any weather packets the latest 1 day(s).
| Time | Temp. | Humidity | Pressure | Rain* | Wind** | Luminosity | Snow |
|---|---|---|---|---|---|---|---|
| 1777975146 | 11.11° C | 57% | 1011.1 hPa | 0 mm | 1.79 m/s, 258° | - | - |
| 1777974546 | 9.44° C | 58% | 1011 hPa | 0 mm | 1.34 m/s, 274° | - | - |
| 1777973804 | 9.44° C | 59% | 1011.2 hPa | 0 mm | 1.34 m/s, 263° | - | - |
| 1777973203 | 8.89° C | 65% | 1011.2 hPa | 0 mm | 1.79 m/s, 226° | - | - |
| 1777972603 | 9.44° C | 64% | 1011.2 hPa | 0 mm | 1.34 m/s, 237° | - | - |
| 1777972003 | 8.33° C | 67% | 1011.4 hPa | 0 mm | 1.79 m/s, 272° | - | - |
| 1777971404 | 8.33° C | 68% | 1011.3 hPa | 0 mm | 1.34 m/s, 304° | - | - |
| 1777970804 | 7.22° C | 73% | 1011.5 hPa | 0 mm | 1.79 m/s, 218° | - | - |
| 1777970204 | 7.78° C | 73% | 1011.5 hPa | 0 mm | 1.79 m/s, 279° | - | - |
| 1777969604 | 7.22° C | 75% | 1011.4 hPa | 0 mm | 1.79 m/s, 253° | - | - |
| 1777969003 | 7.22° C | 74% | 1011.4 hPa | 0 mm | 1.79 m/s, 251° | - | - |
| 1777968403 | 7.22° C | 76% | 1011.3 hPa | 0 mm | 0.89 m/s, 149° | - | - |
| 1777967804 | 7.22° C | 73% | 1011.3 hPa | 0 mm | 1.34 m/s, 266° | - | - |
| 1777967204 | 7.22° C | 76% | 1011.3 hPa | 0 mm | 1.34 m/s, 265° | - | - |
| 1777966603 | 7.22° C | 80% | 1011.4 hPa | 0 mm | 1.34 m/s, 279° | - | - |
| 1777966004 | 7.22° C | 80% | 1011.4 hPa | 0 mm | 0.89 m/s, 224° | - | - |
| 1777965404 | 6.67° C | 81% | 1011.4 hPa | 0 mm | 1.34 m/s, 255° | - | - |
| 1777964804 | 6.67° C | 81% | 1011.3 hPa | 0 mm | 0.89 m/s, 273° | - | - |
| 1777964203 | 6.11° C | 82% | 1011.5 hPa | 0 mm | 0.89 m/s, 263° | - | - |
| 1777963603 | 6.11° C | 81% | 1011.4 hPa | 0 mm | 0.89 m/s, 275° | - | - |
| 1777963003 | 5.56° C | 84% | 1011.4 hPa | 0 mm | 1.34 m/s, 214° | - | - |
| 1777962403 | 6.11° C | 85% | 1011.4 hPa | 0 mm | 0.89 m/s, 266° | - | - |
| 1777961802 | 5.56° C | 87% | 1011.5 hPa | 0 mm | 0.89 m/s, 275° | - | - |
| 1777961202 | 6.11° C | 87% | 1011.4 hPa | 0 mm | 0.45 m/s, 272° | - | - |
| 1777960602 | 6.67° C | 86% | 1011.3 hPa | 0 mm | 0 m/s | - | - |
* Rain latest hour (hover to see other rain measurements)
** Current wind speed in m/s (hover to see current wind gust speed)